PWSweather.com
Personal Weather Stations
Station Observations

PoschiavoCH

Lat: 46.31962499999999, Lon: 10.066551000000004

Elevation: 3517

Station Type: WH 1080

http://www.meteoposchiavo.com

High Low Average
Temperature 80.0°F26.7°C 48.0°F8.9°C 63.6°F17.6°C
Dew Point 59.1°F15.1°C 46.6°F8.1°C 53.4°F11.9°C
Winds 3.5 mph 5.6 kmh Calm Calm Calm SECalm SE
Wind Gusts 3.5 mph5.6 kmh -- 1.0 mph1.6 kmh
Humidity 97% 42% 73%
Pressure 26.72 in904.8 mb 26.57 in899.8 mb -
Precipitation 1.01 in25.7 mm - -
Hour Temp Dew Point Humidity Winds Wind Gusts Pressure Precip Precip Rate Daily Precip Total
12:00 AM 51.0°F10.6°C 49.6°F9.8°C 95% Calm Calm -- 26.62 in901.5 mb - 0.00 in0.0 mm 0.00 in0.0 mm
12:10 AM 51.0°F10.6°C 49.6°F9.8°C 95% Calm Calm -- 26.62 in901.5 mb - 0.00 in0.0 mm 0.00 in0.0 mm
12:15 AM 51.0°F10.6°C 49.6°F9.8°C 95% Calm Calm -- 26.61 in901.1 mb - 0.00 in0.0 mm 0.00 in0.0 mm
12:20 AM 51.0°F10.6°C 49.9°F9.9°C 96% Calm Calm -- 26.61 in901.1 mb - 0.00 in0.0 mm 0.00 in0.0 mm
12:25 AM 51.0°F10.6°C 49.6°F9.8°C 95% Calm Calm -- 26.61 in901.1 mb - 0.00 in0.0 mm 0.00 in0.0 mm
12:30 AM 51.0°F10.6°C 49.6°F9.8°C 95% Calm Calm -- 26.61 in901.1 mb - 0.00 in0.0 mm 0.00 in0.0 mm
12:35 AM 51.0°F10.6°C 49.3°F9.6°C 94% Calm Calm -- 26.61 in901.1 mb - 0.00 in0.0 mm 0.00 in0.0 mm
12:40 AM 51.0°F10.6°C 49.6°F9.8°C 95% Calm Calm -- 26.62 in901.5 mb - 0.00 in0.0 mm 0.00 in0.0 mm
12:45 AM 51.0°F10.6°C 49.6°F9.8°C 95% Calm Calm -- 26.62 in901.5 mb - 0.00 in0.0 mm 0.00 in0.0 mm
12:50 AM 51.0°F10.6°C 49.9°F9.9°C 96% Calm Calm -- 26.62 in901.5 mb - 0.00 in0.0 mm 0.00 in0.0 mm
12:55 AM 51.0°F10.6°C 49.9°F9.9°C 96% Calm Calm -- 26.63 in901.8 mb - 0.00 in0.0 mm 0.00 in0.0 mm
01:00 AM 50.1°F10.1°C 49.3°F9.6°C 97% Calm Calm -- 26.62 in901.5 mb - 0.00 in0.0 mm 0.00 in0.0 mm
01:10 AM 50.0°F10.0°C 49.2°F9.6°C 97% Calm Calm -- 26.63 in901.8 mb - 0.00 in0.0 mm 0.00 in0.0 mm
01:15 AM 50.0°F10.0°C 49.2°F9.6°C 97% Calm Calm -- 26.62 in901.5 mb - 0.00 in0.0 mm 0.00 in0.0 mm
01:20 AM 51.0°F10.6°C 50.2°F10.1°C 97% Calm Calm -- 26.62 in901.5 mb - 0.00 in0.0 mm 0.00 in0.0 mm
01:25 AM 51.0°F10.6°C 50.2°F10.1°C 97% Calm Calm -- 26.62 in901.5 mb - 0.00 in0.0 mm 0.00 in0.0 mm
01:30 AM 51.0°F10.6°C 50.2°F10.1°C 97% Calm Calm -- 26.62 in901.5 mb - 0.00 in0.0 mm 0.00 in0.0 mm
01:35 AM 51.0°F10.6°C 50.2°F10.1°C 97% Calm Calm -- 26.62 in901.5 mb - 0.00 in0.0 mm 0.00 in0.0 mm
01:40 AM 51.0°F10.6°C 50.2°F10.1°C 97% Calm Calm -- 26.62 in901.5 mb - 0.00 in0.0 mm 0.00 in0.0 mm
01:45 AM 51.0°F10.6°C 49.9°F9.9°C 96% Calm Calm -- 26.62 in901.5 mb - 0.00 in0.0 mm 0.00 in0.0 mm
01:50 AM 51.0°F10.6°C 49.9°F9.9°C 96% Calm Calm -- 26.62 in901.5 mb - 0.00 in0.0 mm 0.00 in0.0 mm
01:55 AM 51.0°F10.6°C 49.9°F9.9°C 96% Calm Calm -- 26.61 in901.1 mb - 0.00 in0.0 mm 0.00 in0.0 mm
02:00 AM 52.0°F11.1°C 50.6°F10.3°C 95% Calm Calm -- 26.61 in901.1 mb - 0.00 in0.0 mm 0.00 in0.0 mm
02:10 AM 52.0°F11.1°C 50.0°F10.0°C 93% Calm Calm -- 26.60 in900.8 mb - 0.00 in0.0 mm 0.00 in0.0 mm
02:15 AM 52.0°F11.1°C 50.0°F10.0°C 93% Calm Calm -- 26.60 in900.8 mb - 0.00 in0.0 mm 0.00 in0.0 mm
02:20 AM 52.0°F11.1°C 50.0°F10.0°C 93% Calm Calm -- 26.60 in900.8 mb - 0.00 in0.0 mm 0.00 in0.0 mm
02:25 AM 52.0°F11.1°C 50.3°F10.2°C 94% Calm Calm -- 26.60 in900.8 mb - 0.00 in0.0 mm 0.00 in0.0 mm
02:30 AM 52.0°F11.1°C 50.3°F10.2°C 94% Calm Calm -- 26.60 in900.8 mb - 0.00 in0.0 mm 0.00 in0.0 mm
02:35 AM 51.0°F10.6°C 49.3°F9.6°C 94% Calm Calm -- 26.60 in900.8 mb - 0.00 in0.0 mm 0.00 in0.0 mm
02:40 AM 51.0°F10.6°C 49.6°F9.8°C 95% Calm Calm -- 26.60 in900.8 mb - 0.00 in0.0 mm 0.00 in0.0 mm
02:45 AM 51.0°F10.6°C 49.6°F9.8°C 95% Calm Calm -- 26.61 in901.1 mb - 0.00 in0.0 mm 0.00 in0.0 mm
02:50 AM 51.0°F10.6°C 49.6°F9.8°C 95% Calm Calm -- 26.61 in901.1 mb - 0.00 in0.0 mm 0.00 in0.0 mm
02:55 AM 51.0°F10.6°C 49.6°F9.8°C 95% Calm Calm -- 26.61 in901.1 mb - 0.00 in0.0 mm 0.00 in0.0 mm
03:00 AM 51.0°F10.6°C 49.6°F9.8°C 95% Calm Calm -- 26.60 in900.8 mb - 0.00 in0.0 mm 0.00 in0.0 mm
03:10 AM 51.0°F10.6°C 50.2°F10.1°C 97% Calm Calm -- 26.62 in901.5 mb - 0.00 in0.0 mm 0.00 in0.0 mm
03:15 AM 50.0°F10.0°C 48.9°F9.4°C 96% Calm Calm -- 26.60 in900.8 mb - 0.00 in0.0 mm 0.00 in0.0 mm
03:20 AM 50.0°F10.0°C 48.9°F9.4°C 96% Calm Calm -- 26.61 in901.1 mb - 0.00 in0.0 mm 0.00 in0.0 mm
03:25 AM 50.0°F10.0°C 49.2°F9.6°C 97% Calm Calm -- 26.61 in901.1 mb - 0.00 in0.0 mm 0.00 in0.0 mm
03:30 AM 50.0°F10.0°C 49.2°F9.6°C 97% Calm Calm -- 26.61 in901.1 mb - 0.00 in0.0 mm 0.00 in0.0 mm
03:35 AM 50.0°F10.0°C 49.2°F9.6°C 97% Calm Calm -- 26.61 in901.1 mb - 0.00 in0.0 mm 0.00 in0.0 mm
03:40 AM 50.0°F10.0°C 48.9°F9.4°C 96% Calm Calm -- 26.62 in901.5 mb - 0.00 in0.0 mm 0.00 in0.0 mm
03:45 AM 50.0°F10.0°C 48.9°F9.4°C 96% Calm Calm -- 26.61 in901.1 mb - 0.00 in0.0 mm 0.00 in0.0 mm
03:50 AM 50.0°F10.0°C 49.2°F9.6°C 97% Calm Calm -- 26.61 in901.1 mb - 0.00 in0.0 mm 0.00 in0.0 mm
03:55 AM 50.0°F10.0°C 48.9°F9.4°C 96% Calm Calm -- 26.62 in901.5 mb - 0.00 in0.0 mm 0.00 in0.0 mm
04:00 AM 50.0°F10.0°C 48.9°F9.4°C 96% Calm Calm -- 26.62 in901.5 mb - 0.00 in0.0 mm 0.00 in0.0 mm
04:10 AM 49.0°F9.4°C 47.9°F8.8°C 96% Calm Calm -- 26.61 in901.1 mb - 0.00 in0.0 mm 0.00 in0.0 mm
04:15 AM 49.0°F9.4°C 48.2°F9.0°C 97% Calm Calm -- 26.61 in901.1 mb - 0.00 in0.0 mm 0.00 in0.0 mm
04:20 AM 49.0°F9.4°C 48.2°F9.0°C 97% Calm Calm -- 26.62 in901.5 mb - 0.00 in0.0 mm 0.00 in0.0 mm
04:25 AM 49.0°F9.4°C 48.2°F9.0°C 97% Calm Calm -- 26.62 in901.5 mb - 0.00 in0.0 mm 0.00 in0.0 mm
04:30 AM 49.0°F9.4°C 48.2°F9.0°C 97% Calm Calm -- 26.62 in901.5 mb - 0.00 in0.0 mm 0.00 in0.0 mm
04:35 AM 49.0°F9.4°C 48.2°F9.0°C 97% Calm Calm -- 26.62 in901.5 mb - 0.00 in0.0 mm 0.00 in0.0 mm
04:40 AM 49.0°F9.4°C 47.9°F8.8°C 96% Calm Calm -- 26.61 in901.1 mb - 0.00 in0.0 mm 0.00 in0.0 mm
04:45 AM 49.0°F9.4°C 47.9°F8.8°C 96% Calm Calm -- 26.61 in901.1 mb - 0.00 in0.0 mm 0.00 in0.0 mm
04:50 AM 49.0°F9.4°C 48.2°F9.0°C 97% Calm Calm -- 26.61 in901.1 mb - 0.00 in0.0 mm 0.00 in0.0 mm
04:55 AM 50.0°F10.0°C 48.9°F9.4°C 96% Calm Calm -- 26.62 in901.5 mb - 0.00 in0.0 mm 0.00 in0.0 mm
05:00 AM 49.0°F9.4°C 48.2°F9.0°C 97% Calm Calm -- 26.61 in901.1 mb - 0.00 in0.0 mm 0.00 in0.0 mm
05:10 AM 49.0°F9.4°C 48.2°F9.0°C 97% Calm Calm -- 26.61 in901.1 mb - 0.00 in0.0 mm 0.00 in0.0 mm
05:15 AM 49.0°F9.4°C 48.2°F9.0°C 97% Calm Calm -- 26.61 in901.1 mb - 0.00 in0.0 mm 0.00 in0.0 mm
05:20 AM 49.0°F9.4°C 48.2°F9.0°C 97% Calm Calm -- 26.61 in901.1 mb - 0.00 in0.0 mm 0.00 in0.0 mm
05:25 AM 48.0°F8.9°C 46.9°F8.3°C 96% Calm Calm -- 26.61 in901.1 mb - 0.00 in0.0 mm 0.00 in0.0 mm
05:30 AM 48.0°F8.9°C 46.9°F8.3°C 96% Calm Calm -- 26.61 in901.1 mb - 0.00 in0.0 mm 0.00 in0.0 mm
05:35 AM 48.0°F8.9°C 46.9°F8.3°C 96% Calm Calm -- 26.61 in901.1 mb - 0.00 in0.0 mm 0.00 in0.0 mm
05:40 AM 48.0°F8.9°C 46.9°F8.3°C 96% Calm Calm -- 26.61 in901.1 mb - 0.00 in0.0 mm 0.00 in0.0 mm
05:45 AM 48.0°F8.9°C 46.6°F8.1°C 95% Calm Calm -- 26.61 in901.1 mb - 0.00 in0.0 mm 0.00 in0.0 mm
05:50 AM 49.0°F9.4°C 48.2°F9.0°C 97% Calm Calm -- 26.62 in901.5 mb - 0.00 in0.0 mm 0.00 in0.0 mm
05:55 AM 49.0°F9.4°C 47.9°F8.8°C 96% Calm Calm -- 26.62 in901.5 mb - 0.00 in0.0 mm 0.00 in0.0 mm
06:00 AM 49.0°F9.4°C 47.9°F8.8°C 96% Calm Calm -- 26.61 in901.1 mb - 0.00 in0.0 mm 0.00 in0.0 mm
06:10 AM 49.0°F9.4°C 48.2°F9.0°C 97% Calm Calm -- 26.61 in901.1 mb - 0.00 in0.0 mm 0.00 in0.0 mm
06:15 AM 49.0°F9.4°C 48.2°F9.0°C 97% Calm Calm -- 26.62 in901.5 mb - 0.00 in0.0 mm 0.00 in0.0 mm
06:20 AM 49.0°F9.4°C 47.9°F8.8°C 96% Calm Calm -- 26.61 in901.1 mb - 0.00 in0.0 mm 0.00 in0.0 mm
06:25 AM 49.0°F9.4°C 47.9°F8.8°C 96% Calm Calm -- 26.61 in901.1 mb - 0.00 in0.0 mm 0.00 in0.0 mm
06:30 AM 49.0°F9.4°C 47.9°F8.8°C 96% Calm Calm -- 26.62 in901.5 mb - 0.00 in0.0 mm 0.00 in0.0 mm
06:35 AM 50.0°F10.0°C 49.2°F9.6°C 97% Calm Calm -- 26.61 in901.1 mb - 0.00 in0.0 mm 0.00 in0.0 mm
06:40 AM 50.0°F10.0°C 49.2°F9.6°C 97% Calm Calm -- 26.61 in901.1 mb - 0.00 in0.0 mm 0.00 in0.0 mm
06:45 AM 50.0°F10.0°C 49.2°F9.6°C 97% Calm Calm -- 26.61 in901.1 mb - 0.00 in0.0 mm 0.00 in0.0 mm
06:50 AM 50.0°F10.0°C 48.6°F9.2°C 95% Calm Calm -- 26.61 in901.1 mb - 0.00 in0.0 mm 0.00 in0.0 mm
06:55 AM 50.0°F10.0°C 48.9°F9.4°C 96% Calm Calm -- 26.61 in901.1 mb - 0.00 in0.0 mm 0.00 in0.0 mm
07:00 AM 50.0°F10.0°C 48.6°F9.2°C 95% Calm Calm -- 26.61 in901.1 mb - 0.00 in0.0 mm 0.00 in0.0 mm
07:10 AM 50.9°F10.5°C 49.5°F9.7°C 95% Calm Calm -- 26.61 in901.1 mb - 0.00 in0.0 mm 0.00 in0.0 mm
07:15 AM 51.0°F10.6°C 49.6°F9.8°C 95% Calm Calm -- 26.61 in901.1 mb - 0.00 in0.0 mm 0.00 in0.0 mm
07:20 AM 51.0°F10.6°C 49.6°F9.8°C 95% Calm Calm -- 26.61 in901.1 mb - 0.00 in0.0 mm 0.00 in0.0 mm
07:25 AM 51.0°F10.6°C 49.3°F9.6°C 94% Calm Calm -- 26.60 in900.8 mb - 0.00 in0.0 mm 0.00 in0.0 mm
07:30 AM 51.0°F10.6°C 49.0°F9.4°C 93% Calm Calm -- 26.60 in900.8 mb - 0.00 in0.0 mm 0.00 in0.0 mm
07:35 AM 53.0°F11.7°C 49.8°F9.9°C 89% Calm Calm -- 26.61 in901.1 mb - 0.00 in0.0 mm 0.00 in0.0 mm
07:40 AM 58.0°F14.4°C 54.8°F12.7°C 89% Calm Calm -- 26.60 in900.8 mb - 0.00 in0.0 mm 0.00 in0.0 mm
07:45 AM 59.5°F15.3°C 51.6°F10.9°C 75% Calm Calm -- 26.60 in900.8 mb - 0.00 in0.0 mm 0.00 in0.0 mm
07:50 AM 62.0°F16.7°C 52.1°F11.2°C 70% Calm Calm -- 26.61 in901.1 mb - 0.00 in0.0 mm 0.00 in0.0 mm
07:55 AM 66.0°F18.9°C 53.9°F12.2°C 65% Calm Calm -- 26.60 in900.8 mb - 0.00 in0.0 mm 0.00 in0.0 mm
08:00 AM 68.0°F20.0°C 53.1°F11.7°C 59% Calm Calm -- 26.60 in900.8 mb - 0.00 in0.0 mm 0.00 in0.0 mm
08:10 AM 70.0°F21.1°C 54.1°F12.3°C 57% Calm Calm -- 26.60 in900.8 mb - 0.00 in0.0 mm 0.00 in0.0 mm
08:15 AM 71.3°F21.8°C 54.8°F12.7°C 56% Calm Calm -- 26.59 in900.4 mb - 0.00 in0.0 mm 0.00 in0.0 mm
08:20 AM 72.0°F22.2°C 54.9°F12.7°C 55% Calm Calm -- 26.59 in900.4 mb - 0.00 in0.0 mm 0.00 in0.0 mm
08:25 AM 69.0°F20.6°C 53.6°F12.0°C 58% Calm Calm -- 26.60 in900.8 mb - 0.00 in0.0 mm 0.00 in0.0 mm
08:30 AM 66.0°F18.9°C 54.7°F12.6°C 67% Calm Calm -- 26.59 in900.4 mb - 0.00 in0.0 mm 0.00 in0.0 mm
08:35 AM 65.0°F18.3°C 54.2°F12.3°C 68% Calm Calm -- 26.60 in900.8 mb - 0.00 in0.0 mm 0.00 in0.0 mm
08:40 AM 64.0°F17.8°C 53.2°F11.8°C 68% Calm Calm -- 26.60 in900.8 mb - 0.00 in0.0 mm 0.00 in0.0 mm
08:45 AM 64.0°F17.8°C 52.8°F11.6°C 67% Calm Calm -- 26.60 in900.8 mb - 0.00 in0.0 mm 0.00 in0.0 mm
08:50 AM 64.0°F17.8°C 52.8°F11.6°C 67% Calm Calm -- 26.60 in900.8 mb - 0.00 in0.0 mm 0.00 in0.0 mm
08:55 AM 64.0°F17.8°C 54.0°F12.2°C 70% Calm Calm -- 26.59 in900.4 mb - 0.00 in0.0 mm 0.00 in0.0 mm
09:00 AM 64.0°F17.8°C 53.6°F12.0°C 69% Calm Calm -- 26.59 in900.4 mb - 0.00 in0.0 mm 0.00 in0.0 mm
09:10 AM 64.0°F17.8°C 54.8°F12.7°C 72% Calm Calm -- 26.59 in900.4 mb - 0.00 in0.0 mm 0.00 in0.0 mm
09:15 AM 65.0°F18.3°C 52.9°F11.6°C 65% Calm Calm -- 26.58 in900.1 mb - 0.00 in0.0 mm 0.00 in0.0 mm
09:20 AM 65.0°F18.3°C 52.5°F11.4°C 64% Calm Calm 1.2 mph1.9 kmh 26.58 in900.1 mb - 0.00 in0.0 mm 0.00 in0.0 mm
09:25 AM 65.0°F18.3°C 52.1°F11.2°C 63% Calm Calm 1.2 mph1.9 kmh 26.58 in900.1 mb - 0.00 in0.0 mm 0.00 in0.0 mm
09:30 AM 66.0°F18.9°C 53.0°F11.7°C 63% Calm Calm -- 26.58 in900.1 mb - 0.00 in0.0 mm 0.00 in0.0 mm
09:35 AM 66.0°F18.9°C 52.2°F11.2°C 61% 1.2 mph SW1.9 kmh SW 1.2 mph1.9 kmh 26.58 in900.1 mb - 0.00 in0.0 mm 0.00 in0.0 mm
09:40 AM 67.0°F19.4°C 51.3°F10.7°C 57% Calm Calm -- 26.58 in900.1 mb - 0.00 in0.0 mm 0.00 in0.0 mm
09:45 AM 67.0°F19.4°C 50.8°F10.4°C 56% Calm Calm 1.2 mph1.9 kmh 26.58 in900.1 mb - 0.00 in0.0 mm 0.00 in0.0 mm
09:50 AM 67.6°F19.8°C 52.3°F11.3°C 58% Calm Calm 1.2 mph1.9 kmh 26.58 in900.1 mb - 0.00 in0.0 mm 0.00 in0.0 mm
09:55 AM 68.0°F20.0°C 53.1°F11.7°C 59% Calm Calm -- 26.58 in900.1 mb - 0.00 in0.0 mm 0.00 in0.0 mm
10:00 AM 69.0°F20.6°C 51.7°F10.9°C 54% Calm Calm 1.2 mph1.9 kmh 26.57 in899.8 mb - 0.00 in0.0 mm 0.00 in0.0 mm
10:10 AM 68.0°F20.0°C 54.5°F12.5°C 62% Calm Calm 1.2 mph1.9 kmh 26.58 in900.1 mb - 0.00 in0.0 mm 0.00 in0.0 mm
10:15 AM 68.0°F20.0°C 54.9°F12.7°C 63% 1.2 mph SW1.9 kmh SW 1.2 mph1.9 kmh 26.58 in900.1 mb - 0.00 in0.0 mm 0.00 in0.0 mm
10:20 AM 68.0°F20.0°C 54.0°F12.2°C 61% Calm Calm 1.2 mph1.9 kmh 26.58 in900.1 mb - 0.00 in0.0 mm 0.00 in0.0 mm
10:25 AM 68.0°F20.0°C 53.6°F12.0°C 60% Calm Calm -- 26.58 in900.1 mb - 0.00 in0.0 mm 0.00 in0.0 mm
10:30 AM 68.0°F20.0°C 54.0°F12.2°C 61% Calm Calm -- 26.58 in900.1 mb - 0.00 in0.0 mm 0.00 in0.0 mm
10:35 AM 69.0°F20.6°C 54.5°F12.5°C 60% Calm Calm -- 26.58 in900.1 mb - 0.00 in0.0 mm 0.00 in0.0 mm
10:40 AM 70.0°F21.1°C 55.5°F13.1°C 60% Calm Calm -- 26.59 in900.4 mb - 0.00 in0.0 mm 0.00 in0.0 mm
10:45 AM 69.0°F20.6°C 51.7°F10.9°C 54% Calm Calm 1.2 mph1.9 kmh 26.58 in900.1 mb - 0.00 in0.0 mm 0.00 in0.0 mm
10:50 AM 69.0°F20.6°C 51.7°F10.9°C 54% Calm Calm 1.2 mph1.9 kmh 26.58 in900.1 mb - 0.00 in0.0 mm 0.00 in0.0 mm
10:55 AM 71.0°F21.7°C 54.0°F12.2°C 55% Calm Calm 1.2 mph1.9 kmh 26.58 in900.1 mb - 0.00 in0.0 mm 0.00 in0.0 mm
11:00 AM 72.0°F22.2°C 52.3°F11.3°C 50% Calm Calm 1.2 mph1.9 kmh 26.58 in900.1 mb - 0.00 in0.0 mm 0.00 in0.0 mm
11:10 AM 72.0°F22.2°C 54.9°F12.7°C 55% 1.2 mph SSE1.9 kmh SSE 2.3 mph3.7 kmh 26.57 in899.8 mb - 0.00 in0.0 mm 0.00 in0.0 mm
11:15 AM 71.0°F21.7°C 54.5°F12.5°C 56% Calm Calm -- 26.57 in899.8 mb - 0.00 in0.0 mm 0.00 in0.0 mm
11:20 AM 73.0°F22.8°C 54.9°F12.7°C 53% Calm Calm -- 26.57 in899.8 mb - 0.00 in0.0 mm 0.00 in0.0 mm
11:25 AM 74.0°F23.3°C 56.3°F13.5°C 54% 1.2 mph WSW1.9 kmh WSW 1.2 mph1.9 kmh 26.57 in899.8 mb - 0.00 in0.0 mm 0.00 in0.0 mm
11:30 AM 76.0°F24.4°C 56.0°F13.3°C 50% Calm Calm 1.2 mph1.9 kmh 26.57 in899.8 mb - 0.00 in0.0 mm 0.00 in0.0 mm
11:35 AM 77.7°F25.4°C 53.4°F11.9°C 43% 1.2 mph SW1.9 kmh SW 1.2 mph1.9 kmh 26.57 in899.8 mb - 0.00 in0.0 mm 0.00 in0.0 mm
11:40 AM 78.0°F25.6°C 53.0°F11.7°C 42% 1.2 mph SW1.9 kmh SW 2.3 mph3.7 kmh 26.57 in899.8 mb - 0.00 in0.0 mm 0.00 in0.0 mm
11:45 AM 78.0°F25.6°C 56.1°F13.4°C 47% 1.2 mph WSW1.9 kmh WSW 2.3 mph3.7 kmh 26.57 in899.8 mb - 0.00 in0.0 mm 0.00 in0.0 mm
11:50 AM 75.0°F23.9°C 55.6°F13.1°C 51% 1.2 mph SW1.9 kmh SW 1.2 mph1.9 kmh 26.57 in899.8 mb - 0.00 in0.0 mm 0.00 in0.0 mm
11:55 AM 76.0°F24.4°C 57.1°F13.9°C 52% 2.3 mph W3.7 kmh W 3.5 mph5.6 kmh 26.57 in899.8 mb - 0.00 in0.0 mm 0.00 in0.0 mm
12:00 PM 75.0°F23.9°C 56.2°F13.4°C 52% Calm Calm 1.2 mph1.9 kmh 26.58 in900.1 mb - 0.00 in0.0 mm 0.00 in0.0 mm
12:10 PM 75.1°F23.9°C 54.6°F12.6°C 49% 2.3 mph NNE3.7 kmh NNE 3.5 mph5.6 kmh 26.58 in900.1 mb - 0.00 in0.0 mm 0.00 in0.0 mm
12:15 PM 76.0°F24.4°C 53.1°F11.7°C 45% 1.2 mph ENE1.9 kmh ENE 2.3 mph3.7 kmh 26.57 in899.8 mb - 0.00 in0.0 mm 0.00 in0.0 mm
12:20 PM 77.0°F25.0°C 56.4°F13.6°C 49% 2.3 mph SSW3.7 kmh SSW 2.3 mph3.7 kmh 26.58 in900.1 mb - 0.00 in0.0 mm 0.00 in0.0 mm
12:25 PM 77.0°F25.0°C 55.2°F12.9°C 47% 2.3 mph WSW3.7 kmh WSW 3.5 mph5.6 kmh 26.57 in899.8 mb - 0.00 in0.0 mm 0.00 in0.0 mm
12:30 PM 77.0°F25.0°C 54.0°F12.2°C 45% 2.3 mph NE3.7 kmh NE 3.5 mph5.6 kmh 26.57 in899.8 mb - 0.00 in0.0 mm 0.00 in0.0 mm
12:35 PM 78.0°F25.6°C 56.7°F13.7°C 48% Calm Calm 1.2 mph1.9 kmh 26.57 in899.8 mb - 0.00 in0.0 mm 0.00 in0.0 mm
12:40 PM 78.0°F25.6°C 56.7°F13.7°C 48% Calm Calm 1.2 mph1.9 kmh 26.58 in900.1 mb - 1.01 in25.7 mm 1.01 in25.7 mm
12:45 PM 51.0°F10.6°C 49.9°F9.9°C 96% Calm Calm -- 26.63 in901.8 mb - 1.01 in25.7 mm 1.01 in25.7 mm
12:50 PM 79.0°F26.1°C 54.6°F12.6°C 43% 2.3 mph N3.7 kmh N 3.5 mph5.6 kmh 26.57 in899.8 mb - 1.01 in25.7 mm 1.01 in25.7 mm
12:55 PM 79.0°F26.1°C 56.5°F13.6°C 46% 1.2 mph W1.9 kmh W 3.5 mph5.6 kmh 26.58 in900.1 mb - 1.01 in25.7 mm 1.01 in25.7 mm
01:00 PM 80.0°F26.7°C 59.1°F15.1°C 49% 1.2 mph W1.9 kmh W 1.2 mph1.9 kmh 26.58 in900.1 mb - 1.01 in25.7 mm 1.01 in25.7 mm
01:10 PM 78.8°F26.0°C 57.5°F14.2°C 48% 2.3 mph W3.7 kmh W 3.5 mph5.6 kmh 26.58 in900.1 mb - 1.01 in25.7 mm 1.01 in25.7 mm
01:15 PM 78.0°F25.6°C 56.1°F13.4°C 47% 2.3 mph SW3.7 kmh SW 3.5 mph5.6 kmh 26.58 in900.1 mb - 1.01 in25.7 mm 1.01 in25.7 mm
01:20 PM 77.0°F25.0°C 55.8°F13.2°C 48% 1.2 mph NNE1.9 kmh NNE 2.3 mph3.7 kmh 26.58 in900.1 mb - 1.01 in25.7 mm 1.01 in25.7 mm
01:25 PM 78.0°F25.6°C 56.7°F13.7°C 48% 2.3 mph NE3.7 kmh NE 2.3 mph3.7 kmh 26.58 in900.1 mb - 1.01 in25.7 mm 1.01 in25.7 mm
01:30 PM 78.0°F25.6°C 57.9°F14.4°C 50% 1.2 mph NE1.9 kmh NE 2.3 mph3.7 kmh 26.58 in900.1 mb - 1.01 in25.7 mm 1.01 in25.7 mm
01:35 PM 77.1°F25.1°C 57.5°F14.2°C 51% 2.3 mph W3.7 kmh W 3.5 mph5.6 kmh 26.59 in900.4 mb - 1.01 in25.7 mm 1.01 in25.7 mm
01:40 PM 77.0°F25.0°C 57.5°F14.2°C 51% 2.3 mph W3.7 kmh W 3.5 mph5.6 kmh 26.59 in900.4 mb - 1.01 in25.7 mm 1.01 in25.7 mm
01:45 PM 77.0°F25.0°C 56.4°F13.6°C 49% 2.3 mph NNW3.7 kmh NNW 2.3 mph3.7 kmh 26.57 in899.8 mb - 0.00 in0.0 mm 1.01 in25.7 mm
01:50 PM 77.0°F25.0°C 56.4°F13.6°C 49% 2.3 mph NE3.7 kmh NE 2.3 mph3.7 kmh 26.58 in900.1 mb - 0.00 in0.0 mm 1.01 in25.7 mm
01:55 PM 77.0°F25.0°C 56.4°F13.6°C 49% 1.2 mph N1.9 kmh N 1.2 mph1.9 kmh 26.58 in900.1 mb - 0.00 in0.0 mm 1.01 in25.7 mm
02:00 PM 79.0°F26.1°C 55.2°F12.9°C 44% 2.3 mph NE3.7 kmh NE 3.5 mph5.6 kmh 26.58 in900.1 mb - 0.00 in0.0 mm 1.01 in25.7 mm
02:10 PM 79.0°F26.1°C 57.0°F13.9°C 47% 1.2 mph N1.9 kmh N 1.2 mph1.9 kmh 26.58 in900.1 mb - 0.00 in0.0 mm 1.01 in25.7 mm
02:15 PM 79.0°F26.1°C 57.6°F14.2°C 48% 1.2 mph WNW1.9 kmh WNW 1.2 mph1.9 kmh 26.58 in900.1 mb - 0.00 in0.0 mm 1.01 in25.7 mm
02:20 PM 77.0°F25.0°C 56.9°F13.8°C 50% 1.2 mph NNE1.9 kmh NNE 2.3 mph3.7 kmh 26.58 in900.1 mb - 0.00 in0.0 mm 1.01 in25.7 mm
02:25 PM 78.0°F25.6°C 58.4°F14.7°C 51% 1.2 mph WNW1.9 kmh WNW 2.3 mph3.7 kmh 26.58 in900.1 mb - 0.00 in0.0 mm 1.01 in25.7 mm
02:30 PM 79.0°F26.1°C 56.5°F13.6°C 46% Calm Calm 1.2 mph1.9 kmh 26.58 in900.1 mb - 0.00 in0.0 mm 1.01 in25.7 mm
02:35 PM 80.0°F26.7°C 55.5°F13.1°C 43% 2.3 mph N3.7 kmh N 2.3 mph3.7 kmh 26.58 in900.1 mb - 0.00 in0.0 mm 1.01 in25.7 mm
02:40 PM 80.0°F26.7°C 56.1°F13.4°C 44% 2.3 mph N3.7 kmh N 2.3 mph3.7 kmh 26.58 in900.1 mb - 0.00 in0.0 mm 1.01 in25.7 mm
02:45 PM 80.0°F26.7°C 58.5°F14.7°C 48% 1.2 mph W1.9 kmh W 2.3 mph3.7 kmh 26.58 in900.1 mb - 0.00 in0.0 mm 1.01 in25.7 mm
02:50 PM 79.0°F26.1°C 57.6°F14.2°C 48% 1.2 mph NNE1.9 kmh NNE 2.3 mph3.7 kmh 26.58 in900.1 mb - 0.00 in0.0 mm 1.01 in25.7 mm
02:55 PM 79.0°F26.1°C 56.5°F13.6°C 46% 3.5 mph W5.6 kmh W 3.5 mph5.6 kmh 26.59 in900.4 mb - 0.00 in0.0 mm 1.01 in25.7 mm
03:00 PM 78.0°F25.6°C 56.1°F13.4°C 47% 2.3 mph NE3.7 kmh NE 2.3 mph3.7 kmh 26.58 in900.1 mb - 0.00 in0.0 mm 1.01 in25.7 mm
03:10 PM 78.0°F25.6°C 56.1°F13.4°C 47% 2.3 mph NW3.7 kmh NW 2.3 mph3.7 kmh 26.58 in900.1 mb - 0.00 in0.0 mm 1.01 in25.7 mm
03:15 PM 78.0°F25.6°C 55.5°F13.1°C 46% 2.3 mph E3.7 kmh E 2.3 mph3.7 kmh 26.59 in900.4 mb - 0.00 in0.0 mm 1.01 in25.7 mm
03:20 PM 79.0°F26.1°C 56.5°F13.6°C 46% 1.2 mph N1.9 kmh N 2.3 mph3.7 kmh 26.58 in900.1 mb - 0.00 in0.0 mm 1.01 in25.7 mm
03:25 PM 78.0°F25.6°C 58.9°F14.9°C 52% 1.2 mph WNW1.9 kmh WNW 1.2 mph1.9 kmh 26.58 in900.1 mb - 0.00 in0.0 mm 1.01 in25.7 mm
03:30 PM 77.0°F25.0°C 58.6°F14.8°C 53% 1.2 mph NE1.9 kmh NE 2.3 mph3.7 kmh 26.58 in900.1 mb - 0.00 in0.0 mm 1.01 in25.7 mm
03:35 PM 76.1°F24.5°C 56.1°F13.4°C 50% 2.3 mph SW3.7 kmh SW 3.5 mph5.6 kmh 26.58 in900.1 mb - 0.00 in0.0 mm 1.01 in25.7 mm
03:40 PM 76.0°F24.4°C 56.0°F13.3°C 50% 2.3 mph SW3.7 kmh SW 3.5 mph5.6 kmh 26.58 in900.1 mb - 0.00 in0.0 mm 1.01 in25.7 mm
03:45 PM 76.0°F24.4°C 55.5°F13.1°C 49% 1.2 mph W1.9 kmh W 3.5 mph5.6 kmh 26.58 in900.1 mb - 0.00 in0.0 mm 1.01 in25.7 mm
03:50 PM 76.0°F24.4°C 54.9°F12.7°C 48% 2.3 mph N3.7 kmh N 2.3 mph3.7 kmh 26.58 in900.1 mb - 0.00 in0.0 mm 1.01 in25.7 mm
03:55 PM 77.0°F25.0°C 56.4°F13.6°C 49% 2.3 mph NW3.7 kmh NW 3.5 mph5.6 kmh 26.59 in900.4 mb - 0.00 in0.0 mm 1.01 in25.7 mm
04:00 PM 78.0°F25.6°C 56.1°F13.4°C 47% 2.3 mph W3.7 kmh W 2.3 mph3.7 kmh 26.59 in900.4 mb - 0.00 in0.0 mm 1.01 in25.7 mm
04:10 PM 77.9°F25.5°C 57.8°F14.3°C 50% Calm Calm 2.3 mph3.7 kmh 26.58 in900.1 mb - 0.00 in0.0 mm 1.01 in25.7 mm
04:15 PM 77.0°F25.0°C 54.6°F12.6°C 46% 2.3 mph WNW3.7 kmh WNW 2.3 mph3.7 kmh 26.59 in900.4 mb - 0.00 in0.0 mm 1.01 in25.7 mm
04:20 PM 78.0°F25.6°C 54.9°F12.7°C 45% 1.2 mph N1.9 kmh N 1.2 mph1.9 kmh 26.59 in900.4 mb - 0.00 in0.0 mm 1.01 in25.7 mm
04:25 PM 77.0°F25.0°C 55.8°F13.2°C 48% 1.2 mph NE1.9 kmh NE 2.3 mph3.7 kmh 26.59 in900.4 mb - 0.00 in0.0 mm 1.01 in25.7 mm
04:30 PM 76.0°F24.4°C 54.3°F12.4°C 47% Calm Calm 1.2 mph1.9 kmh 26.59 in900.4 mb - 0.00 in0.0 mm 1.01 in25.7 mm
04:35 PM 76.0°F24.4°C 55.5°F13.1°C 49% 1.2 mph WSW1.9 kmh WSW 2.3 mph3.7 kmh 26.59 in900.4 mb - 0.00 in0.0 mm 1.01 in25.7 mm
04:40 PM 75.9°F24.4°C 55.4°F13.0°C 49% 1.2 mph WSW1.9 kmh WSW 2.3 mph3.7 kmh 26.59 in900.4 mb - 0.00 in0.0 mm 1.01 in25.7 mm
04:45 PM 75.0°F23.9°C 55.6°F13.1°C 51% 1.2 mph NNE1.9 kmh NNE 1.2 mph1.9 kmh 26.58 in900.1 mb - 0.00 in0.0 mm 1.01 in25.7 mm
04:50 PM 75.0°F23.9°C 56.2°F13.4°C 52% Calm Calm 1.2 mph1.9 kmh 26.59 in900.4 mb - 0.00 in0.0 mm 1.01 in25.7 mm
04:55 PM 74.0°F23.3°C 55.3°F12.9°C 52% 1.2 mph NW1.9 kmh NW 2.3 mph3.7 kmh 26.59 in900.4 mb - 0.00 in0.0 mm 1.01 in25.7 mm
05:00 PM 74.0°F23.3°C 55.3°F12.9°C 52% 2.3 mph N3.7 kmh N 3.5 mph5.6 kmh 26.59 in900.4 mb - 0.00 in0.0 mm 1.01 in25.7 mm
05:10 PM 73.9°F23.3°C 55.2°F12.9°C 52% 1.2 mph NE1.9 kmh NE 2.3 mph3.7 kmh 26.59 in900.4 mb - 0.00 in0.0 mm 1.01 in25.7 mm
05:15 PM 73.0°F22.8°C 55.4°F13.0°C 54% 1.2 mph NW1.9 kmh NW 1.2 mph1.9 kmh 26.60 in900.8 mb - 0.00 in0.0 mm 1.01 in25.7 mm
05:20 PM 74.0°F23.3°C 55.8°F13.2°C 53% 2.3 mph NE3.7 kmh NE 2.3 mph3.7 kmh 26.59 in900.4 mb - 0.00 in0.0 mm 1.01 in25.7 mm
05:25 PM 74.0°F23.3°C 55.3°F12.9°C 52% Calm Calm -- 26.59 in900.4 mb - 0.00 in0.0 mm 1.01 in25.7 mm
05:30 PM 74.0°F23.3°C 55.3°F12.9°C 52% Calm Calm 1.2 mph1.9 kmh 26.59 in900.4 mb - 0.00 in0.0 mm 1.01 in25.7 mm
05:35 PM 74.0°F23.3°C 55.8°F13.2°C 53% Calm Calm 1.2 mph1.9 kmh 26.60 in900.8 mb - 0.00 in0.0 mm 1.01 in25.7 mm
05:40 PM 73.9°F23.3°C 55.7°F13.2°C 53% Calm Calm 1.2 mph1.9 kmh 26.60 in900.8 mb - 0.00 in0.0 mm 1.01 in25.7 mm
05:45 PM 73.0°F22.8°C 54.9°F12.7°C 53% Calm Calm 1.2 mph1.9 kmh 26.60 in900.8 mb - 0.00 in0.0 mm 1.01 in25.7 mm
05:50 PM 73.0°F22.8°C 54.9°F12.7°C 53% Calm Calm -- 26.59 in900.4 mb - 0.00 in0.0 mm 1.01 in25.7 mm
06:00 PM 73.0°F22.8°C 55.4°F13.0°C 54% Calm Calm 1.2 mph1.9 kmh 26.59 in900.4 mb - 0.00 in0.0 mm 1.01 in25.7 mm
06:10 PM 74.0°F23.3°C 55.3°F12.9°C 52% Calm Calm -- 26.60 in900.8 mb - 0.00 in0.0 mm 1.01 in25.7 mm
06:15 PM 73.0°F22.8°C 55.4°F13.0°C 54% Calm Calm -- 26.59 in900.4 mb - 0.00 in0.0 mm 1.01 in25.7 mm
06:20 PM 74.0°F23.3°C 54.7°F12.6°C 51% 1.2 mph NE1.9 kmh NE 1.2 mph1.9 kmh 26.60 in900.8 mb - 0.00 in0.0 mm 1.01 in25.7 mm
06:25 PM 73.0°F22.8°C 54.3°F12.4°C 52% Calm Calm -- 26.60 in900.8 mb - 0.00 in0.0 mm 1.01 in25.7 mm
06:30 PM 73.0°F22.8°C 55.4°F13.0°C 54% Calm Calm -- 26.60 in900.8 mb - 0.00 in0.0 mm 1.01 in25.7 mm
06:35 PM 72.8°F22.7°C 55.6°F13.1°C 55% Calm Calm -- 26.60 in900.8 mb - 0.00 in0.0 mm 1.01 in25.7 mm
06:40 PM 72.0°F22.2°C 55.4°F13.0°C 56% Calm Calm -- 26.60 in900.8 mb - 0.00 in0.0 mm 1.01 in25.7 mm
06:45 PM 71.0°F21.7°C 57.3°F14.1°C 62% Calm Calm 1.2 mph1.9 kmh 26.60 in900.8 mb - 0.00 in0.0 mm 1.01 in25.7 mm
06:50 PM 70.0°F21.1°C 55.0°F12.8°C 59% Calm Calm 1.2 mph1.9 kmh 26.61 in901.1 mb - 0.00 in0.0 mm 1.01 in25.7 mm
06:55 PM 70.0°F21.1°C 56.4°F13.6°C 62% Calm Calm -- 26.61 in901.1 mb - 0.00 in0.0 mm 1.01 in25.7 mm
07:00 PM 70.0°F21.1°C 56.8°F13.8°C 63% Calm Calm -- 26.61 in901.1 mb - 0.00 in0.0 mm 1.01 in25.7 mm
07:10 PM 69.0°F20.6°C 55.4°F13.0°C 62% Calm Calm -- 26.62 in901.5 mb - 0.00 in0.0 mm 1.01 in25.7 mm
07:15 PM 69.0°F20.6°C 57.2°F14.0°C 66% Calm Calm -- 26.62 in901.5 mb - 0.00 in0.0 mm 1.01 in25.7 mm
07:20 PM 69.0°F20.6°C 57.6°F14.2°C 67% Calm Calm -- 26.62 in901.5 mb - 0.00 in0.0 mm 1.01 in25.7 mm
07:25 PM 69.0°F20.6°C 57.6°F14.2°C 67% Calm Calm -- 26.62 in901.5 mb - 0.00 in0.0 mm 1.01 in25.7 mm
07:30 PM 69.0°F20.6°C 58.0°F14.4°C 68% Calm Calm -- 26.62 in901.5 mb - 0.00 in0.0 mm 1.01 in25.7 mm
07:35 PM 68.0°F20.0°C 57.4°F14.1°C 69% Calm Calm -- 26.63 in901.8 mb - 0.00 in0.0 mm 1.01 in25.7 mm
07:40 PM 68.0°F20.0°C 58.6°F14.8°C 72% Calm Calm -- 26.62 in901.5 mb - 0.00 in0.0 mm 1.01 in25.7 mm
07:45 PM 67.0°F19.4°C 56.9°F13.8°C 70% Calm Calm -- 26.62 in901.5 mb - 0.00 in0.0 mm 1.01 in25.7 mm
07:50 PM 67.0°F19.4°C 57.7°F14.3°C 72% Calm Calm -- 26.63 in901.8 mb - 0.00 in0.0 mm 1.01 in25.7 mm
07:55 PM 67.0°F19.4°C 58.1°F14.5°C 73% Calm Calm -- 26.63 in901.8 mb - 0.00 in0.0 mm 1.01 in25.7 mm
08:00 PM 67.0°F19.4°C 58.8°F14.9°C 75% Calm Calm -- 26.64 in902.1 mb - 0.00 in0.0 mm 1.01 in25.7 mm
08:10 PM 66.0°F18.9°C 57.8°F14.3°C 75% Calm Calm -- 26.64 in902.1 mb - 0.00 in0.0 mm 1.01 in25.7 mm
08:15 PM 66.0°F18.9°C 57.8°F14.3°C 75% Calm Calm -- 26.64 in902.1 mb - 0.00 in0.0 mm 1.01 in25.7 mm
08:20 PM 65.0°F18.3°C 57.2°F14.0°C 76% Calm Calm -- 26.64 in902.1 mb - 0.00 in0.0 mm 1.01 in25.7 mm
08:25 PM 65.0°F18.3°C 57.6°F14.2°C 77% Calm Calm -- 26.64 in902.1 mb - 0.00 in0.0 mm 1.01 in25.7 mm
08:30 PM 65.0°F18.3°C 58.0°F14.4°C 78% Calm Calm -- 26.64 in902.1 mb - 0.00 in0.0 mm 1.01 in25.7 mm
08:35 PM 64.0°F17.8°C 56.6°F13.7°C 77% Calm Calm -- 26.65 in902.5 mb - 0.00 in0.0 mm 1.01 in25.7 mm
08:40 PM 64.0°F17.8°C 57.0°F13.9°C 78% Calm Calm -- 26.65 in902.5 mb - 0.00 in0.0 mm 1.01 in25.7 mm
08:45 PM 64.0°F17.8°C 57.4°F14.1°C 79% Calm Calm -- 26.66 in902.8 mb - 0.00 in0.0 mm 1.01 in25.7 mm
08:50 PM 63.0°F17.2°C 56.4°F13.6°C 79% Calm Calm -- 26.66 in902.8 mb - 0.00 in0.0 mm 1.01 in25.7 mm
08:55 PM 63.0°F17.2°C 56.7°F13.7°C 80% Calm Calm -- 26.66 in902.8 mb - 0.00 in0.0 mm 1.01 in25.7 mm
09:00 PM 63.0°F17.2°C 57.1°F13.9°C 81% Calm Calm -- 26.66 in902.8 mb - 0.00 in0.0 mm 1.01 in25.7 mm
09:10 PM 62.0°F16.7°C 56.1°F13.4°C 81% Calm Calm -- 26.67 in903.2 mb - 0.00 in0.0 mm 1.01 in25.7 mm
09:15 PM 62.0°F16.7°C 56.1°F13.4°C 81% Calm Calm -- 26.67 in903.2 mb - 0.00 in0.0 mm 1.01 in25.7 mm
09:20 PM 62.0°F16.7°C 56.4°F13.6°C 82% Calm Calm -- 26.67 in903.2 mb - 0.00 in0.0 mm 1.01 in25.7 mm
09:25 PM 62.0°F16.7°C 56.4°F13.6°C 82% Calm Calm -- 26.67 in903.2 mb - 0.00 in0.0 mm 1.01 in25.7 mm
09:30 PM 62.0°F16.7°C 56.4°F13.6°C 82% Calm Calm -- 26.67 in903.2 mb - 0.00 in0.0 mm 1.01 in25.7 mm
09:35 PM 62.0°F16.7°C 56.1°F13.4°C 81% Calm Calm -- 26.67 in903.2 mb - 0.00 in0.0 mm 1.01 in25.7 mm
09:40 PM 62.0°F16.7°C 56.4°F13.6°C 82% Calm Calm -- 26.68 in903.5 mb - 0.00 in0.0 mm 1.01 in25.7 mm
09:45 PM 61.5°F16.4°C 56.3°F13.5°C 83% Calm Calm -- 26.68 in903.5 mb - 0.00 in0.0 mm 1.01 in25.7 mm
09:50 PM 61.0°F16.1°C 55.8°F13.2°C 83% Calm Calm -- 26.67 in903.2 mb - 0.00 in0.0 mm 1.01 in25.7 mm
09:55 PM 61.0°F16.1°C 55.8°F13.2°C 83% Calm Calm -- 26.68 in903.5 mb - 0.00 in0.0 mm 1.01 in25.7 mm
10:00 PM 61.0°F16.1°C 55.8°F13.2°C 83% Calm Calm -- 26.68 in903.5 mb - 0.00 in0.0 mm 1.01 in25.7 mm
10:10 PM 61.0°F16.1°C 55.8°F13.2°C 83% Calm Calm -- 26.68 in903.5 mb - 0.00 in0.0 mm 1.01 in25.7 mm
10:15 PM 60.0°F15.6°C 55.5°F13.1°C 85% Calm Calm -- 26.69 in903.8 mb - 0.00 in0.0 mm 1.01 in25.7 mm
10:20 PM 60.0°F15.6°C 55.5°F13.1°C 85% Calm Calm -- 26.69 in903.8 mb - 0.00 in0.0 mm 1.01 in25.7 mm
10:25 PM 60.0°F15.6°C 55.5°F13.1°C 85% Calm Calm -- 26.69 in903.8 mb - 0.00 in0.0 mm 1.01 in25.7 mm
10:30 PM 60.0°F15.6°C 55.5°F13.1°C 85% Calm Calm -- 26.70 in904.2 mb - 0.00 in0.0 mm 1.01 in25.7 mm
10:35 PM 60.0°F15.6°C 55.5°F13.1°C 85% Calm Calm -- 26.70 in904.2 mb - 0.00 in0.0 mm 1.01 in25.7 mm
10:40 PM 60.0°F15.6°C 55.8°F13.2°C 86% Calm Calm -- 26.70 in904.2 mb - 0.00 in0.0 mm 1.01 in25.7 mm
10:45 PM 60.0°F15.6°C 55.8°F13.2°C 86% Calm Calm -- 26.70 in904.2 mb - 0.00 in0.0 mm 1.01 in25.7 mm
10:50 PM 60.0°F15.6°C 55.8°F13.2°C 86% Calm Calm -- 26.70 in904.2 mb - 0.00 in0.0 mm 1.01 in25.7 mm
10:55 PM 60.0°F15.6°C 55.5°F13.1°C 85% Calm Calm -- 26.71 in904.5 mb - 0.00 in0.0 mm 1.01 in25.7 mm
11:00 PM 60.0°F15.6°C 55.2°F12.9°C 84% Calm Calm -- 26.70 in904.2 mb - 0.00 in0.0 mm 12.12 in307.8 mm
11:10 PM 60.0°F15.6°C 55.5°F13.1°C 85% Calm Calm -- 26.70 in904.2 mb - 0.00 in0.0 mm 12.12 in307.8 mm
11:15 PM 59.0°F15.0°C 55.1°F12.8°C 87% Calm Calm -- 26.71 in904.5 mb - 0.00 in0.0 mm 12.12 in307.8 mm
11:20 PM 59.0°F15.0°C 55.1°F12.8°C 87% Calm Calm -- 26.71 in904.5 mb - 0.00 in0.0 mm 12.12 in307.8 mm
11:25 PM 59.0°F15.0°C 55.1°F12.8°C 87% Calm Calm -- 26.71 in904.5 mb - 0.00 in0.0 mm 12.12 in307.8 mm
11:30 PM 59.0°F15.0°C 55.1°F12.8°C 87% Calm Calm -- 26.71 in904.5 mb - 0.00 in0.0 mm 12.12 in307.8 mm
11:35 PM 59.0°F15.0°C 55.1°F12.8°C 87% Calm Calm -- 26.71 in904.5 mb - 0.00 in0.0 mm 12.12 in307.8 mm
11:40 PM 59.0°F15.0°C 55.1°F12.8°C 87% Calm Calm -- 26.72 in904.8 mb - 0.00 in0.0 mm 12.12 in307.8 mm
11:45 PM 59.0°F15.0°C 55.1°F12.8°C 87% Calm Calm -- 26.71 in904.5 mb - 0.00 in0.0 mm 12.12 in307.8 mm
11:50 PM 59.0°F15.0°C 55.1°F12.8°C 87% Calm Calm -- 26.72 in904.8 mb - 0.00 in0.0 mm 12.12 in307.8 mm
11:55 PM 59.0°F15.0°C 55.4°F13.0°C 88% Calm Calm -- 26.72 in904.8 mb - 0.00 in0.0 mm 12.12 in307.8 mm